Hampton, Minnesota
Current Conditions -  °F | °C
As of 2:14 PM on Friday 31 Oct 2014 (Local Time) from KSYN Reporting Station
Clear Clear  
Wind Chill: 34°   Ceiling: Unl
Heat Index: 39°   Visibility: 10mi
Dew Point: 18°   Wind: 8mph
Humidity: 42%   Direction: 360°N
Pressure: 30.49"   Gusts: NA
Location:  44.61°N, 93°W
Report Text: KSYN 311914Z AUTO 36007KT 10SM CLR 04/M08 A3049 RMK AO2 T00411079
Loading
Personal Weather Stations






























Interactive Weather Map
Tropical Storm Tracking
New forecast layout! Learn more

10-Day Weather Forecast

Advertisements
Track Severe Weather on mobile